sensor_id;sensor_type;location;lat;lon;timestamp;pressure;altitude;pressure_sealevel;temperature;humidity
68994;BME280;56054;50.968;5.816;2023-03-21T00:01:33;100895.53;;;10.10;100.00
68994;BME280;56054;50.968;5.816;2023-03-21T00:04:40;100899.03;;;10.10;100.00
68994;BME280;56054;50.968;5.816;2023-03-21T00:07:47;100907.72;;;10.11;100.00
68994;BME280;56054;50.968;5.816;2023-03-21T06:43:09;100636.13;;;9.59;100.00
68994;BME280;56054;50.968;5.816;2023-03-21T06:46:17;100644.03;;;9.61;100.00
68994;BME280;56054;50.968;5.816;2023-03-21T06:49:24;100640.63;;;9.62;100.00
68994;BME280;56054;50.968;5.816;2023-03-21T06:52:39;100643.09;;;9.60;100.00
68994;BME280;56054;50.968;5.816;2023-03-21T06:55:49;100646.91;;;9.65;100.00
68994;BME280;56054;50.968;5.816;2023-03-21T06:58:56;100642.41;;;9.63;100.00
68994;BME280;56054;50.968;5.816;2023-03-21T07:02:33;100638.44;;;9.68;100.00
68994;BME280;56054;50.968;5.816;2023-03-21T07:05:45;100642.63;;;9.79;100.00
68994;BME280;56054;50.968;5.816;2023-03-21T07:08:53;100642.72;;;9.81;100.00
68994;BME280;56054;50.968;5.816;2023-03-21T07:12:03;100646.03;;;9.78;100.00
68994;BME280;56054;50.968;5.816;2023-03-21T07:15:31;100634.81;;;9.79;100.00
68994;BME280;56054;50.968;5.816;2023-03-21T07:18:38;100642.91;;;9.84;100.00
68994;BME280;56054;50.968;5.816;2023-03-21T07:21:47;100649.00;;;9.84;100.00
68994;BME280;56054;50.968;5.816;2023-03-21T07:24:56;100655.47;;;9.91;100.00
68994;BME280;56054;50.968;5.816;2023-03-21T07:28:03;100649.78;;;9.97;100.00
68994;BME280;56054;50.968;5.816;2023-03-21T07:31:16;100643.09;;;10.00;100.00
68994;BME280;56054;50.968;5.816;2023-03-21T07:34:23;100655.38;;;10.03;100.00
68994;BME280;56054;50.968;5.816;2023-03-21T07:37:31;100660.94;;;10.09;100.00
68994;BME280;56054;50.968;5.816;2023-03-21T07:40:37;100660.47;;;10.15;100.00
68994;BME280;56054;50.968;5.816;2023-03-21T07:43:51;100667.72;;;10.20;100.00
68994;BME280;56054;50.968;5.816;2023-03-21T07:47:06;100659.94;;;10.20;100.00
68994;BME280;56054;50.968;5.816;2023-03-21T07:50:14;100660.31;;;10.26;100.00
68994;BME280;56054;50.968;5.816;2023-03-21T07:53:21;100669.91;;;10.27;100.00
68994;BME280;56054;50.968;5.816;2023-03-21T07:56:28;100660.31;;;10.26;100.00
68994;BME280;56054;50.968;5.816;2023-03-21T07:59:35;100662.84;;;10.25;100.00
68994;BME280;56054;50.968;5.816;2023-03-21T08:02:42;100660.56;;;10.30;100.00
68994;BME280;56054;50.968;5.816;2023-03-21T08:05:49;100664.34;;;10.35;100.00
68994;BME280;56054;50.968;5.816;2023-03-21T08:08:57;100667.31;;;10.41;100.00
68994;BME280;56054;50.968;5.816;2023-03-21T08:12:05;100667.59;;;10.45;100.00
68994;BME280;56054;50.968;5.816;2023-03-21T08:15:13;100669.88;;;10.54;100.00
68994;BME280;56054;50.968;5.816;2023-03-21T08:18:20;100669.06;;;10.55;100.00
68994;BME280;56054;50.968;5.816;2023-03-21T08:21:28;100669.19;;;10.57;100.00
68994;BME280;56054;50.968;5.816;2023-03-21T08:24:35;100661.09;;;10.52;100.00
68994;BME280;56054;50.968;5.816;2023-03-21T08:27:54;100657.69;;;10.53;100.00
68994;BME280;56054;50.968;5.816;2023-03-21T08:31:00;100655.25;;;10.41;100.00
68994;BME280;56054;50.968;5.816;2023-03-21T08:34:12;100655.38;;;10.30;100.00
68994;BME280;56054;50.968;5.816;2023-03-21T08:37:19;100657.97;;;10.30;100.00
68994;BME280;56054;50.968;5.816;2023-03-21T08:40:26;100653.94;;;10.21;100.00
68994;BME280;56054;50.968;5.816;2023-03-21T08:43:33;100652.84;;;10.18;100.00
68994;BME280;56054;50.968;5.816;2023-03-21T08:46:40;100657.16;;;10.17;100.00
68994;BME280;56054;50.968;5.816;2023-03-21T08:49:47;100656.09;;;10.00;100.00
68994;BME280;56054;50.968;5.816;2023-03-21T08:52:54;100653.06;;;9.94;100.00
68994;BME280;56054;50.968;5.816;2023-03-21T08:56:01;100652.69;;;10.01;100.00
68994;BME280;56054;50.968;5.816;2023-03-21T08:59:08;100647.19;;;9.97;100.00
68994;BME280;56054;50.968;5.816;2023-03-21T09:02:18;100648.19;;;9.99;100.00
68994;BME280;56054;50.968;5.816;2023-03-21T09:05:25;100640.59;;;10.02;100.00
68994;BME280;56054;50.968;5.816;2023-03-21T09:08:32;100631.59;;;10.10;100.00
68994;BME280;56054;50.968;5.816;2023-03-21T09:11:40;100630.19;;;10.15;100.00
68994;BME280;56054;50.968;5.816;2023-03-21T09:14:47;100627.97;;;10.21;100.00
68994;BME280;56054;50.968;5.816;2023-03-21T09:17:55;100619.38;;;10.36;100.00
68994;BME280;56054;50.968;5.816;2023-03-21T09:21:07;100619.94;;;10.45;100.00
68994;BME280;56054;50.968;5.816;2023-03-21T09:24:15;100619.34;;;10.49;100.00
68994;BME280;56054;50.968;5.816;2023-03-21T09:27:22;100622.47;;;10.58;100.00
68994;BME280;56054;50.968;5.816;2023-03-21T09:30:31;100616.72;;;10.77;100.00
68994;BME280;56054;50.968;5.816;2023-03-21T09:33:38;100616.81;;;10.79;100.00
68994;BME280;56054;50.968;5.816;2023-03-21T09:36:46;100602.84;;;10.91;100.00
68994;BME280;56054;50.968;5.816;2023-03-21T09:39:54;100602.69;;;11.03;100.00
68994;BME280;56054;50.968;5.816;2023-03-21T09:43:12;100596.41;;;11.14;100.00
68994;BME280;56054;50.968;5.816;2023-03-21T09:46:44;100596.19;;;11.26;100.00
68994;BME280;56054;50.968;5.816;2023-03-21T09:50:02;100583.28;;;11.43;100.00
68994;BME280;56054;50.968;5.816;2023-03-21T09:53:17;100586.50;;;11.53;100.00
68994;BME280;56054;50.968;5.816;2023-03-21T09:56:26;100586.84;;;11.60;100.00
68994;BME280;56054;50.968;5.816;2023-03-21T09:59:35;100583.78;;;11.67;100.00
68994;BME280;56054;50.968;5.816;2023-03-21T10:02:45;100580.56;;;11.71;100.00
68994;BME280;56054;50.968;5.816;2023-03-21T10:05:55;100571.28;;;11.76;100.00
68994;BME280;56054;50.968;5.816;2023-03-21T10:09:18;100558.28;;;11.76;100.00
68994;BME280;56054;50.968;5.816;2023-03-21T10:12:26;100569.56;;;11.76;100.00
68994;BME280;56054;50.968;5.816;2023-03-21T10:15:34;100564.25;;;11.75;100.00
68994;BME280;56054;50.968;5.816;2023-03-21T10:18:43;100553.84;;;11.75;100.00
68994;BME280;56054;50.968;5.816;2023-03-21T10:21:50;100553.78;;;11.73;100.00
68994;BME280;56054;50.968;5.816;2023-03-21T10:24:57;100552.06;;;11.74;100.00
68994;BME280;56054;50.968;5.816;2023-03-21T10:28:06;100549.63;;;11.77;100.00
68994;BME280;56054;50.968;5.816;2023-03-21T10:31:17;100550.00;;;11.83;100.00
68994;BME280;56054;50.968;5.816;2023-03-21T10:34:35;100551.06;;;11.87;100.00
68994;BME280;56054;50.968;5.816;2023-03-21T10:37:43;100544.25;;;11.89;100.00
68994;BME280;56054;50.968;5.816;2023-03-21T10:40:51;100549.81;;;11.95;100.00
68994;BME280;56054;50.968;5.816;2023-03-21T10:44:09;100553.72;;;12.03;100.00
68994;BME280;56054;50.968;5.816;2023-03-21T10:47:34;100553.56;;;12.00;100.00
68994;BME280;56054;50.968;5.816;2023-03-21T10:50:45;100542.00;;;11.95;100.00
68994;BME280;56054;50.968;5.816;2023-03-21T10:53:55;100542.69;;;11.92;99.96
68994;BME280;56054;50.968;5.816;2023-03-21T10:57:18;100554.03;;;11.93;100.00
68994;BME280;56054;50.968;5.816;2023-03-21T11:00:29;100555.34;;;11.86;100.00
68994;BME280;56054;50.968;5.816;2023-03-21T11:03:42;100539.56;;;11.83;100.00
68994;BME280;56054;50.968;5.816;2023-03-21T11:06:55;100535.16;;;11.82;100.00
68994;BME280;56054;50.968;5.816;2023-03-21T11:10:13;100535.25;;;11.84;100.00
68994;BME280;56054;50.968;5.816;2023-03-21T11:13:37;100548.72;;;11.91;100.00
68994;BME280;56054;50.968;5.816;2023-03-21T11:17:06;100549.78;;;11.80;100.00
68994;BME280;56054;50.968;5.816;2023-03-21T11:20:19;100552.75;;;11.86;100.00
68994;BME280;56054;50.968;5.816;2023-03-21T11:23:49;100544.25;;;11.89;100.00
68994;BME280;56054;50.968;5.816;2023-03-21T11:31:07;100551.19;;;12.05;99.65
68994;BME280;56054;50.968;5.816;2023-03-21T11:34:27;100545.47;;;12.12;97.29
68994;BME280;56054;50.968;5.816;2023-03-21T11:37:42;100533.84;;;12.21;97.03
68994;BME280;56054;50.968;5.816;2023-03-21T11:40:56;100543.28;;;12.36;96.36
68994;BME280;56054;50.968;5.816;2023-03-21T11:44:42;100540.03;;;12.40;94.80
68994;BME280;56054;50.968;5.816;2023-03-21T11:47:53;100544.66;;;12.46;93.94
68994;BME280;56054;50.968;5.816;2023-03-21T11:51:36;100550.81;;;12.46;92.52
68994;BME280;56054;50.968;5.816;2023-03-21T11:55:30;100534.56;;;12.52;91.94
68994;BME280;56054;50.968;5.816;2023-03-21T12:02:40;100532.25;;;12.74;92.41
68994;BME280;56054;50.968;5.816;2023-03-21T12:06:00;100520.97;;;12.92;92.88
68994;BME280;56054;50.968;5.816;2023-03-21T12:30:20;100488.06;;;13.47;87.64
68994;BME280;56054;50.968;5.816;2023-03-21T12:37:22;100466.88;;;13.59;85.52
68994;BME280;56054;50.968;5.816;2023-03-21T12:44:15;100466.31;;;13.66;85.93
68994;BME280;56054;50.968;5.816;2023-03-21T12:47:25;100454.81;;;13.63;85.05
68994;BME280;56054;50.968;5.816;2023-03-21T12:50:40;100443.84;;;13.70;85.96
68994;BME280;56054;50.968;5.816;2023-03-21T13:00:44;100441.66;;;14.18;84.29
68994;BME280;56054;50.968;5.816;2023-03-21T13:07:20;100444.81;;;14.11;82.13
68994;BME280;56054;50.968;5.816;2023-03-21T13:10:27;100440.13;;;14.23;83.12
68994;BME280;56054;50.968;5.816;2023-03-21T13:17:23;100427.66;;;14.37;80.47
68994;BME280;56054;50.968;5.816;2023-03-21T13:20:53;100429.94;;;14.70;78.45
68994;BME280;56054;50.968;5.816;2023-03-21T13:27:33;100422.31;;;14.53;76.50
68994;BME280;56054;50.968;5.816;2023-03-21T13:30:43;100434.53;;;14.54;75.25
68994;BME280;56054;50.968;5.816;2023-03-21T13:34:20;100437.28;;;14.38;73.32
68994;BME280;56054;50.968;5.816;2023-03-21T13:37:31;100434.53;;;14.54;74.20
68994;BME280;56054;50.968;5.816;2023-03-21T13:41:14;100426.72;;;14.35;72.38
68994;BME280;56054;50.968;5.816;2023-03-21T13:44:54;100432.22;;;14.41;73.84
68994;BME280;56054;50.968;5.816;2023-03-21T13:48:02;100425.50;;;14.48;73.88
68994;BME280;56054;50.968;5.816;2023-03-21T13:51:09;100430.81;;;14.49;72.46
68994;BME280;56054;50.968;5.816;2023-03-21T14:00:38;100415.66;;;14.83;72.42
68994;BME280;56054;50.968;5.816;2023-03-21T14:03:46;100412.38;;;14.66;72.05
68994;BME280;56054;50.968;5.816;2023-03-21T14:07:04;100400.50;;;14.33;72.02
68994;BME280;56054;50.968;5.816;2023-03-21T14:10:40;100405.56;;;14.29;73.22
68994;BME280;56054;50.968;5.816;2023-03-21T14:13:48;100410.78;;;14.29;73.42
68994;BME280;56054;50.968;5.816;2023-03-21T14:16:59;100395.03;;;14.27;73.51
68994;BME280;56054;50.968;5.816;2023-03-21T14:20:36;100396.63;;;14.45;73.68
68994;BME280;56054;50.968;5.816;2023-03-21T14:23:43;100398.91;;;14.37;73.40
68994;BME280;56054;50.968;5.816;2023-03-21T14:26:53;100383.25;;;14.37;72.72
68994;BME280;56054;50.968;5.816;2023-03-21T14:30:01;100390.59;;;14.67;73.73
68994;BME280;56054;50.968;5.816;2023-03-21T14:36:31;100368.41;;;15.01;72.36
68994;BME280;56054;50.968;5.816;2023-03-21T14:39:38;100367.91;;;14.66;72.04
68994;BME280;56054;50.968;5.816;2023-03-21T14:42:49;100377.06;;;14.77;73.53
68994;BME280;56054;50.968;5.816;2023-03-21T14:45:56;100381.22;;;14.72;72.81
68994;BME280;56054;50.968;5.816;2023-03-21T14:49:19;100369.22;;;14.99;71.88
68994;BME280;56054;50.968;5.816;2023-03-21T14:52:30;100355.03;;;14.93;71.00
68994;BME280;56054;50.968;5.816;2023-03-21T14:55:43;100361.25;;;14.74;72.07
68994;BME280;56054;50.968;5.816;2023-03-21T14:58:54;100362.09;;;14.73;72.91
68994;BME280;56054;50.968;5.816;2023-03-21T15:02:18;100357.50;;;14.67;74.08
68994;BME280;56054;50.968;5.816;2023-03-21T15:05:35;100351.16;;;14.61;72.87
68994;BME280;56054;50.968;5.816;2023-03-21T15:08:57;100345.91;;;14.61;73.46
68994;BME280;56054;50.968;5.816;2023-03-21T15:12:20;100349.72;;;14.69;73.68
68994;BME280;56054;50.968;5.816;2023-03-21T15:15:30;100336.09;;;14.77;73.50
68994;BME280;56054;50.968;5.816;2023-03-21T15:18:43;100349.78;;;15.15;72.82
68994;BME280;56054;50.968;5.816;2023-03-21T15:21:54;100335.06;;;15.17;72.35
68994;BME280;56054;50.968;5.816;2023-03-21T15:25:07;100332.31;;;15.14;72.04
68994;BME280;56054;50.968;5.816;2023-03-21T15:28:20;100336.81;;;15.18;71.01
68994;BME280;56054;50.968;5.816;2023-03-21T15:31:33;100323.44;;;15.11;72.12
68994;BME280;56054;50.968;5.816;2023-03-21T15:34:41;100330.84;;;14.98;72.24
68994;BME280;56054;50.968;5.816;2023-03-21T15:37:54;100337.84;;;14.99;73.53
68994;BME280;56054;50.968;5.816;2023-03-21T15:44:55;100341.78;;;14.88;72.79
68994;BME280;56054;50.968;5.816;2023-03-21T15:48:14;100334.63;;;14.84;73.31
68994;BME280;56054;50.968;5.816;2023-03-21T15:51:24;100333.84;;;14.87;73.31
68994;BME280;56054;50.968;5.816;2023-03-21T15:54:57;100341.00;;;14.91;74.07
68994;BME280;56054;50.968;5.816;2023-03-21T15:58:24;100336.09;;;14.77;74.05
68994;BME280;56054;50.968;5.816;2023-03-21T16:01:57;100332.50;;;14.74;74.84
68994;BME280;56054;50.968;5.816;2023-03-21T16:05:29;100323.69;;;14.72;76.49
68994;BME280;56054;50.968;5.816;2023-03-21T16:09:02;100324.53;;;14.71;77.12
68994;BME280;56054;50.968;5.816;2023-03-21T16:12:13;100328.78;;;14.69;77.60
68994;BME280;56054;50.968;5.816;2023-03-21T16:15:22;100321.53;;;14.62;78.56
68994;BME280;56054;50.968;5.816;2023-03-21T16:18:30;100329.13;;;14.55;79.34
68994;BME280;56054;50.968;5.816;2023-03-21T16:21:37;100317.72;;;14.53;80.37
68994;BME280;56054;50.968;5.816;2023-03-21T16:24:44;100325.34;;;14.49;80.81
68994;BME280;56054;50.968;5.816;2023-03-21T16:27:51;100320.91;;;14.46;80.38
68994;BME280;56054;50.968;5.816;2023-03-21T16:34:23;100327.66;;;14.41;81.54
68994;BME280;56054;50.968;5.816;2023-03-21T16:37:31;100327.38;;;14.35;82.84
68994;BME280;56054;50.968;5.816;2023-03-21T16:40:40;100344.81;;;14.34;84.23
68994;BME280;56054;50.968;5.816;2023-03-21T16:47:18;100359.41;;;14.29;85.43
68994;BME280;56054;50.968;5.816;2023-03-21T16:50:35;100350.84;;;14.12;87.18
68994;BME280;56054;50.968;5.816;2023-03-21T16:53:44;100346.22;;;14.07;88.27
68994;BME280;56054;50.968;5.816;2023-03-21T16:56:53;100340.31;;;14.11;87.79
68994;BME280;56054;50.968;5.816;2023-03-21T17:00:04;100354.41;;;14.15;87.88
68994;BME280;56054;50.968;5.816;2023-03-21T17:03:15;100364.78;;;14.13;88.03
68994;BME280;56054;50.968;5.816;2023-03-21T17:06:26;100373.41;;;14.10;89.08
68994;BME280;56054;50.968;5.816;2023-03-21T17:09:34;100373.94;;;14.03;88.67
68994;BME280;56054;50.968;5.816;2023-03-21T17:12:41;100371.47;;;14.06;89.36
68994;BME280;56054;50.968;5.816;2023-03-21T17:15:48;100366.41;;;14.09;89.63
68994;BME280;56054;50.968;5.816;2023-03-21T17:19:00;100368.66;;;14.02;89.58
68994;BME280;56054;50.968;5.816;2023-03-21T17:22:07;100368.41;;;13.96;90.40
68994;BME280;56054;50.968;5.816;2023-03-21T17:25:20;100366.59;;;13.95;90.57
68994;BME280;56054;50.968;5.816;2023-03-21T17:28:28;100366.75;;;13.98;91.73
68994;BME280;56054;50.968;5.816;2023-03-21T17:31:56;100370.69;;;13.88;91.78
68994;BME280;56054;50.968;5.816;2023-03-21T17:35:06;100359.31;;;13.87;92.13
68994;BME280;56054;50.968;5.816;2023-03-21T17:38:58;100364.16;;;13.78;93.79
68994;BME280;56054;50.968;5.816;2023-03-21T17:42:32;100367.53;;;13.76;94.35
68994;BME280;56054;50.968;5.816;2023-03-21T17:45:44;100366.28;;;13.67;94.59
68994;BME280;56054;50.968;5.816;2023-03-21T17:48:58;100370.75;;;13.70;94.89
68994;BME280;56054;50.968;5.816;2023-03-21T17:55:39;100359.16;;;13.63;95.62
68994;BME280;56054;50.968;5.816;2023-03-21T17:58:47;100369.31;;;13.57;96.09
68994;BME280;56054;50.968;5.816;2023-03-21T18:01:54;100377.69;;;13.50;96.47
68994;BME280;56054;50.968;5.816;2023-03-21T18:05:01;100377.81;;;13.53;96.83
68994;BME280;56054;50.968;5.816;2023-03-21T18:08:10;100364.22;;;13.41;98.62
68994;BME280;56054;50.968;5.816;2023-03-21T18:11:20;100385.03;;;13.39;99.07
68994;BME280;56054;50.968;5.816;2023-03-21T18:14:29;100373.63;;;13.37;100.00
68994;BME280;56054;50.968;5.816;2023-03-21T18:17:37;100389.19;;;13.36;100.00
68994;BME280;56054;50.968;5.816;2023-03-21T18:20:56;100386.47;;;13.33;100.00
68994;BME280;56054;50.968;5.816;2023-03-21T18:24:04;100376.38;;;13.22;100.00
68994;BME280;56054;50.968;5.816;2023-03-21T18:27:15;100383.16;;;13.19;100.00
68994;BME280;56054;50.968;5.816;2023-03-21T18:30:24;100381.47;;;13.19;100.00
68994;BME280;56054;50.968;5.816;2023-03-21T18:33:35;100397.13;;;13.19;100.00
68994;BME280;56054;50.968;5.816;2023-03-21T18:36:49;100380.41;;;13.16;100.00
68994;BME280;56054;50.968;5.816;2023-03-21T18:40:00;100385.38;;;13.10;100.00
68994;BME280;56054;50.968;5.816;2023-03-21T18:43:09;100386.13;;;13.07;100.00
68994;BME280;56054;50.968;5.816;2023-03-21T18:46:17;100385.06;;;13.03;100.00
68994;BME280;56054;50.968;5.816;2023-03-21T18:49:55;100389.25;;;13.00;100.00
68994;BME280;56054;50.968;5.816;2023-03-21T18:53:03;100389.16;;;12.98;100.00
68994;BME280;56054;50.968;5.816;2023-03-21T18:56:10;100391.84;;;13.00;100.00
68994;BME280;56054;50.968;5.816;2023-03-21T18:59:17;100391.28;;;12.88;100.00
68994;BME280;56054;50.968;5.816;2023-03-21T19:02:25;100389.09;;;12.79;100.00
68994;BME280;56054;50.968;5.816;2023-03-21T19:05:32;100382.84;;;12.75;100.00
68994;BME280;56054;50.968;5.816;2023-03-21T19:08:39;100382.63;;;12.71;100.00
68994;BME280;56054;50.968;5.816;2023-03-21T19:11:46;100375.16;;;12.60;100.00
68994;BME280;56054;50.968;5.816;2023-03-21T19:14:53;100376.72;;;12.57;100.00
68994;BME280;56054;50.968;5.816;2023-03-21T19:18:00;100367.03;;;12.54;100.00
68994;BME280;56054;50.968;5.816;2023-03-21T19:21:07;100370.91;;;12.45;100.00
68994;BME280;56054;50.968;5.816;2023-03-21T19:24:14;100356.25;;;12.47;100.00
68994;BME280;56054;50.968;5.816;2023-03-21T19:27:20;100358.53;;;12.40;100.00
68994;BME280;56054;50.968;5.816;2023-03-21T19:30:28;100353.09;;;12.36;100.00
68994;BME280;56054;50.968;5.816;2023-03-21T19:33:35;100343.41;;;12.33;100.00
68994;BME280;56054;50.968;5.816;2023-03-21T19:36:43;100349.13;;;12.26;100.00
68994;BME280;56054;50.968;5.816;2023-03-21T19:39:50;100336.94;;;12.25;100.00
68994;BME280;56054;50.968;5.816;2023-03-21T19:42:57;100342.50;;;12.15;100.00
68994;BME280;56054;50.968;5.816;2023-03-21T19:46:04;100357.00;;;12.10;100.00
68994;BME280;56054;50.968;5.816;2023-03-21T19:49:17;100351.63;;;12.07;100.00
68994;BME280;56054;50.968;5.816;2023-03-21T19:52:29;100350.88;;;12.09;100.00
68994;BME280;56054;50.968;5.816;2023-03-21T19:55:37;100344.16;;;11.96;100.00
68994;BME280;56054;50.968;5.816;2023-03-21T19:58:45;100352.06;;;11.98;100.00
68994;BME280;56054;50.968;5.816;2023-03-21T20:01:52;100347.50;;;11.94;100.00
68994;BME280;56054;50.968;5.816;2023-03-21T20:05:05;100341.41;;;11.93;100.00
68994;BME280;56054;50.968;5.816;2023-03-21T20:08:13;100340.28;;;11.88;100.00
68994;BME280;56054;50.968;5.816;2023-03-21T20:11:20;100346.72;;;11.95;100.00
68994;BME280;56054;50.968;5.816;2023-03-21T20:14:27;100345.47;;;12.05;100.00
68994;BME280;56054;50.968;5.816;2023-03-21T20:17:39;100344.66;;;12.06;100.00
68994;BME280;56054;50.968;5.816;2023-03-21T20:20:47;100343.91;;;12.08;100.00
68994;BME280;56054;50.968;5.816;2023-03-21T20:23:54;100343.00;;;12.08;100.00
68994;BME280;56054;50.968;5.816;2023-03-21T20:27:02;100334.53;;;12.12;100.00
68994;BME280;56054;50.968;5.816;2023-03-21T20:30:11;100338.78;;;12.10;100.00
68994;BME280;56054;50.968;5.816;2023-03-21T20:33:19;100344.06;;;12.11;100.00
68994;BME280;56054;50.968;5.816;2023-03-21T20:36:26;100340.41;;;12.08;100.00
68994;BME280;56054;50.968;5.816;2023-03-21T20:39:34;100345.69;;;12.09;100.00
68994;BME280;56054;50.968;5.816;2023-03-21T20:42:42;100345.84;;;12.12;100.00
68994;BME280;56054;50.968;5.816;2023-03-21T20:45:50;100344.94;;;12.12;100.00
68994;BME280;56054;50.968;5.816;2023-03-21T20:49:04;100350.31;;;12.15;100.00
68994;BME280;56054;50.968;5.816;2023-03-21T20:52:11;100344.38;;;12.17;100.00
68994;BME280;56054;50.968;5.816;2023-03-21T20:55:19;100349.81;;;12.22;100.00
68994;BME280;56054;50.968;5.816;2023-03-21T20:58:26;100342.00;;;12.22;100.00
68994;BME280;56054;50.968;5.816;2023-03-21T21:01:33;100336.94;;;12.25;100.00
68994;BME280;56054;50.968;5.816;2023-03-21T21:04:40;100342.28;;;12.28;100.00
68994;BME280;56054;50.968;5.816;2023-03-21T21:07:49;100349.13;;;12.26;100.00
68994;BME280;56054;50.968;5.816;2023-03-21T21:10:56;100338.72;;;12.26;100.00
68994;BME280;56054;50.968;5.816;2023-03-21T21:14:28;100340.56;;;12.29;100.00
68994;BME280;56054;50.968;5.816;2023-03-21T21:17:36;100344.09;;;12.29;100.00
68994;BME280;56054;50.968;5.816;2023-03-21T21:20:44;100333.81;;;12.32;100.00
68994;BME280;56054;50.968;5.816;2023-03-21T21:24:00;100340.81;;;12.33;100.00
68994;BME280;56054;50.968;5.816;2023-03-21T21:27:10;100332.84;;;12.30;100.00
68994;BME280;56054;50.968;5.816;2023-03-21T21:30:20;100337.53;;;12.37;100.00
68994;BME280;56054;50.968;5.816;2023-03-21T21:33:27;100338.38;;;12.36;100.00
68994;BME280;56054;50.968;5.816;2023-03-21T21:36:34;100333.16;;;12.36;100.00
68994;BME280;56054;50.968;5.816;2023-03-21T21:39:44;100334.13;;;12.38;100.00
68994;BME280;56054;50.968;5.816;2023-03-21T21:42:52;100325.50;;;12.39;100.00
68994;BME280;56054;50.968;5.816;2023-03-21T21:45:59;100329.72;;;12.37;100.00
68994;BME280;56054;50.968;5.816;2023-03-21T21:49:09;100327.97;;;12.36;100.00
68994;BME280;56054;50.968;5.816;2023-03-21T21:52:17;100320.28;;;12.39;100.00
68994;BME280;56054;50.968;5.816;2023-03-21T21:55:24;100317.69;;;12.39;100.00
68994;BME280;56054;50.968;5.816;2023-03-21T21:58:35;100312.31;;;12.36;100.00
68994;BME280;56054;50.968;5.816;2023-03-21T22:01:45;100313.13;;;12.35;100.00
68994;BME280;56054;50.968;5.816;2023-03-21T22:04:55;100311.50;;;12.37;100.00
68994;BME280;56054;50.968;5.816;2023-03-21T22:08:03;100310.75;;;12.40;100.00
68994;BME280;56054;50.968;5.816;2023-03-21T22:11:10;100301.91;;;12.36;100.00
68994;BME280;56054;50.968;5.816;2023-03-21T22:14:19;100305.44;;;12.38;100.00
68994;BME280;56054;50.968;5.816;2023-03-21T22:17:26;100306.13;;;12.34;100.00
68994;BME280;56054;50.968;5.816;2023-03-21T22:20:33;100308.81;;;12.36;100.00
68994;BME280;56054;50.968;5.816;2023-03-21T22:23:46;100310.47;;;12.34;100.00
68994;BME280;56054;50.968;5.816;2023-03-21T22:27:25;100309.63;;;12.35;100.00
68994;BME280;56054;50.968;5.816;2023-03-21T22:30:32;100310.53;;;12.35;100.00
68994;BME280;56054;50.968;5.816;2023-03-21T22:33:39;100307.91;;;12.35;100.00
68994;BME280;56054;50.968;5.816;2023-03-21T22:36:56;100313.88;;;12.33;100.00
68994;BME280;56054;50.968;5.816;2023-03-21T22:40:09;100307.91;;;12.35;100.00
68994;BME280;56054;50.968;5.816;2023-03-21T22:43:17;100306.13;;;12.34;100.00
68994;BME280;56054;50.968;5.816;2023-03-21T22:46:24;100303.34;;;12.31;100.00
68994;BME280;56054;50.968;5.816;2023-03-21T22:49:41;100306.72;;;12.29;100.00
68994;BME280;56054;50.968;5.816;2023-03-21T22:52:49;100306.56;;;12.26;100.00
68994;BME280;56054;50.968;5.816;2023-03-21T22:55:56;100297.78;;;12.24;100.00
68994;BME280;56054;50.968;5.816;2023-03-21T22:59:03;100303.59;;;12.18;100.00
68994;BME280;56054;50.968;5.816;2023-03-21T23:02:10;100297.16;;;12.11;100.00
68994;BME280;56054;50.968;5.816;2023-03-21T23:05:19;100297.03;;;12.08;100.00
68994;BME280;56054;50.968;5.816;2023-03-21T23:08:26;100287.50;;;12.09;100.00
